Time;durP1;ratioP1;P1;durP2;ratioP2;P2;SDS_P1;SDS_P2;PMS_P1;PMS_P2;Temp;Humidity;BMP_temperature;BMP_pressure;BME280_temperature;BME280_humidity;BME280_pressure;Samples;Min_cycle;Max_cycle;Signal;HPM_P1;HPM_P2
2021/10/24 00:00:21;;;;;;;21.67;9.73;;;;;;;;;;5047379;28;20029;-69
2021/10/24 00:02:47;;;;;;;18.08;9.07;;;;;;;;;;5050537;28;20029;-69
2021/10/24 00:05:13;;;;;;;19.73;9.73;;;;;;;;;;5048882;28;20025;-69
2021/10/24 00:07:39;;;;;;;20.25;11.02;;;;;;;;;;5047648;28;20047;-69
2021/10/24 00:10:05;;;;;;;22.05;10.40;;;;;;;;;;5047527;28;20029;-69
2021/10/24 00:12:31;;;;;;;22.92;11.40;;;;;;;;;;5046704;28;20362;-68
2021/10/24 00:14:57;;;;;;;16.85;9.20;;;;;;;;;;5049792;28;20032;-69
2021/10/24 00:17:23;;;;;;;20.60;9.45;;;;;;;;;;5049397;28;20029;-69
2021/10/24 00:19:50;;;;;;;18.35;9.00;;;;;;;;;;5047634;28;20498;-69
2021/10/24 00:22:15;;;;;;;18.60;8.93;;;;;;;;;;5047200;28;20546;-69
2021/10/24 00:24:41;;;;;;;15.45;8.32;;;;;;;;;;5047296;28;20071;-69
2021/10/24 00:27:07;;;;;;;21.10;9.65;;;;;;;;;;5050247;28;20029;-68
2021/10/24 00:29:34;;;;;;;20.90;10.50;;;;;;;;;;5053936;28;20487;-69
2021/10/24 00:32:00;;;;;;;22.83;9.70;;;;;;;;;;5050754;28;20040;-67
2021/10/24 00:34:26;;;;;;;21.60;9.40;;;;;;;;;;5050668;28;20391;-69
2021/10/24 00:36:52;;;;;;;19.13;9.07;;;;;;;;;;5050425;28;20074;-69
2021/10/24 00:39:18;;;;;;;21.98;9.73;;;;;;;;;;5050897;28;20087;-69
2021/10/24 00:41:45;;;;;;;22.38;10.77;;;;;;;;;;5053840;28;20044;-69
2021/10/24 00:44:18;;;;;;;24.73;10.13;;;;;;;;;;5051119;28;20021;-68
2021/10/24 00:46:44;;;;;;;18.90;9.27;;;;;;;;;;5050822;28;20029;-69
2021/10/24 00:49:10;;;;;;;15.65;8.07;;;;;;;;;;5050521;28;20025;-68
2021/10/24 00:51:36;;;;;;;19.02;7.97;;;;;;;;;;5050313;28;20032;-69
2021/10/24 00:54:02;;;;;;;16.27;8.10;;;;;;;;;;5052028;28;20112;-68
2021/10/24 00:56:28;;;;;;;15.73;7.95;;;;;;;;;;5052405;28;20044;-68
2021/10/24 00:58:54;;;;;;;14.68;7.57;;;;;;;;;;5050326;28;20106;-68
2021/10/24 01:01:20;;;;;;;20.08;8.60;;;;;;;;;;5049980;28;20393;-68
2021/10/24 01:03:46;;;;;;;13.05;7.43;;;;;;;;;;5050485;28;20029;-69
2021/10/24 01:06:12;;;;;;;16.80;8.45;;;;;;;;;;5050353;28;20510;-68
2021/10/24 01:08:38;;;;;;;26.02;9.05;;;;;;;;;;5053611;28;20504;-68
2021/10/24 01:11:05;;;;;;;20.80;7.30;;;;;;;;;;5049958;28;20504;-62
2021/10/24 01:13:35;;;;;;;17.17;8.25;;;;;;;;;;5049051;28;20052;-62
2021/10/24 01:16:10;;;;;;;20.13;7.53;;;;;;;;;;5050120;28;20025;-62
2021/10/24 01:18:36;;;;;;;13.48;6.93;;;;;;;;;;5049466;28;20060;-62
2021/10/24 01:21:02;;;;;;;15.07;7.25;;;;;;;;;;5051879;28;20060;-62
2021/10/24 01:23:28;;;;;;;21.13;8.63;;;;;;;;;;5052328;28;20105;-62
2021/10/24 01:25:54;;;;;;;16.13;7.90;;;;;;;;;;5049677;28;20025;-63
2021/10/24 01:28:20;;;;;;;17.25;7.93;;;;;;;;;;5049720;28;20040;-62
2021/10/24 01:30:46;;;;;;;14.60;7.68;;;;;;;;;;5049502;28;20480;-62
2021/10/24 01:33:13;;;;;;;16.20;7.63;;;;;;;;;;5049996;28;20048;-62
2021/10/24 01:35:54;;;;;;;15.88;7.53;;;;;;;;;;5049471;28;20013;-62
2021/10/24 01:38:20;;;;;;;19.70;7.28;;;;;;;;;;5051292;28;20048;-62
2021/10/24 01:40:46;;;;;;;17.10;8.18;;;;;;;;;;5049526;28;20151;-62
2021/10/24 01:43:12;;;;;;;17.52;7.93;;;;;;;;;;5048386;28;20112;-62
2021/10/24 01:45:38;;;;;;;19.83;8.63;;;;;;;;;;5049403;28;20492;-62
2021/10/24 01:48:05;;;;;;;15.63;7.47;;;;;;;;;;5050851;28;20481;-62
2021/10/24 01:50:31;;;;;;;14.85;6.78;;;;;;;;;;5052072;28;20029;-62
2021/10/24 01:52:57;;;;;;;17.65;6.22;;;;;;;;;;5049033;28;20380;-62
2021/10/24 01:55:23;;;;;;;16.50;7.35;;;;;;;;;;5049420;28;20029;-62
2021/10/24 01:57:51;;;;;;;19.75;7.28;;;;;;;;;;5049437;28;20101;-62
2021/10/24 02:00:17;;;;;;;19.85;7.72;;;;;;;;;;5049178;28;20502;-62
2021/10/24 02:02:44;;;;;;;17.80;7.18;;;;;;;;;;5052601;28;20017;-62
2021/10/24 02:05:10;;;;;;;15.50;7.45;;;;;;;;;;5050960;28;20028;-62
2021/10/24 02:07:36;;;;;;;14.13;6.40;;;;;;;;;;5048916;28;20021;-62
2021/10/24 02:10:03;;;;;;;14.93;6.75;;;;;;;;;;5049187;28;20100;-62
2021/10/24 02:12:29;;;;;;;14.30;6.68;;;;;;;;;;5048087;28;20442;-62
2021/10/24 02:14:55;;;;;;;13.95;7.20;;;;;;;;;;5050507;28;20033;-62
2021/10/24 02:17:21;;;;;;;16.75;7.43;;;;;;;;;;5052018;28;20431;-62
2021/10/24 02:19:47;;;;;;;17.98;7.95;;;;;;;;;;5049016;28;20029;-62
2021/10/24 02:22:13;;;;;;;16.38;7.30;;;;;;;;;;5048940;28;20097;-62
2021/10/24 02:24:41;;;;;;;16.13;7.15;;;;;;;;;;5048650;28;20032;-62
2021/10/24 02:27:07;;;;;;;18.67;8.05;;;;;;;;;;5049440;28;20068;-61
2021/10/24 02:29:33;;;;;;;16.38;7.75;;;;;;;;;;5051427;28;20493;-62
2021/10/24 02:31:59;;;;;;;14.68;6.85;;;;;;;;;;5048889;28;20033;-62
2021/10/24 02:34:25;;;;;;;14.48;6.47;;;;;;;;;;5048877;28;20082;-62
2021/10/24 02:36:51;;;;;;;12.80;5.88;;;;;;;;;;5048095;28;20529;-62
2021/10/24 02:39:17;;;;;;;14.38;6.95;;;;;;;;;;5048183;28;20043;-62
2021/10/24 02:41:43;;;;;;;15.20;6.90;;;;;;;;;;5052079;28;20096;-62
2021/10/24 02:44:09;;;;;;;13.20;6.55;;;;;;;;;;5050379;28;20033;-62
2021/10/24 02:46:35;;;;;;;17.25;6.95;;;;;;;;;;5047948;28;20021;-62
2021/10/24 02:49:01;;;;;;;14.60;6.90;;;;;;;;;;5048237;28;20373;-62
2021/10/24 02:51:27;;;;;;;15.05;7.03;;;;;;;;;;5048046;28;20025;-62
2021/10/24 02:53:53;;;;;;;16.42;6.60;;;;;;;;;;5050869;28;20468;-62
2021/10/24 02:56:19;;;;;;;13.25;7.30;;;;;;;;;;5049348;28;20074;-62
2021/10/24 02:58:45;;;;;;;15.30;6.60;;;;;;;;;;5046979;28;20037;-62
2021/10/24 03:01:10;;;;;;;16.60;6.28;;;;;;;;;;5048327;28;20374;-62
2021/10/24 03:03:36;;;;;;;17.83;7.07;;;;;;;;;;5048068;28;20032;-62
2021/10/24 03:06:02;;;;;;;13.63;5.72;;;;;;;;;;5049619;28;20116;-62
2021/10/24 03:08:28;;;;;;;12.38;6.15;;;;;;;;;;5050034;28;20503;-62
2021/10/24 03:10:54;;;;;;;12.90;6.45;;;;;;;;;;5048301;28;20071;-62
2021/10/24 03:13:21;;;;;;;14.18;7.28;;;;;;;;;;5047872;28;20453;-62
2021/10/24 03:15:47;;;;;;;11.10;5.80;;;;;;;;;;5048099;28;20070;-62
2021/10/24 03:18:13;;;;;;;14.70;6.55;;;;;;;;;;5048455;28;20107;-62
2021/10/24 03:20:39;;;;;;;18.17;7.65;;;;;;;;;;5051276;28;20124;-62
2021/10/24 03:23:05;;;;;;;16.33;7.25;;;;;;;;;;5048097;28;20497;-63
2021/10/24 03:25:31;;;;;;;16.13;7.45;;;;;;;;;;5047703;28;20036;-63
2021/10/24 03:27:56;;;;;;;13.15;6.90;;;;;;;;;;5048124;28;20033;-62
2021/10/24 03:30:22;;;;;;;15.25;6.72;;;;;;;;;;5047920;28;20026;-62
2021/10/24 03:32:48;;;;;;;15.10;6.22;;;;;;;;;;5050384;28;20045;-62
2021/10/24 03:35:14;;;;;;;13.90;6.07;;;;;;;;;;5048908;28;20045;-62
2021/10/24 03:37:40;;;;;;;13.55;6.32;;;;;;;;;;5047598;28;20017;-62
2021/10/24 03:40:07;;;;;;;16.77;7.22;;;;;;;;;;5047657;28;20480;-62
2021/10/24 03:42:33;;;;;;;17.65;7.28;;;;;;;;;;5048157;28;20414;-62
2021/10/24 03:44:59;;;;;;;18.85;7.32;;;;;;;;;;5050053;28;20037;-62
2021/10/24 03:47:25;;;;;;;22.77;8.85;;;;;;;;;;5049070;28;20129;-62
2021/10/24 03:49:51;;;;;;;16.58;7.32;;;;;;;;;;5047519;28;20029;-62
2021/10/24 03:52:17;;;;;;;19.70;7.25;;;;;;;;;;5047625;28;20025;-62
2021/10/24 03:54:43;;;;;;;13.73;6.75;;;;;;;;;;5047989;28;20101;-62
2021/10/24 03:57:09;;;;;;;23.40;7.70;;;;;;;;;;5048344;28;20455;-62
2021/10/24 03:59:35;;;;;;;15.02;6.55;;;;;;;;;;5050688;28;20037;-62
2021/10/24 04:02:01;;;;;;;16.45;6.38;;;;;;;;;;5049852;28;20029;-62
2021/10/24 04:04:27;;;;;;;15.35;6.43;;;;;;;;;;5050944;28;20040;-63
2021/10/24 04:06:53;;;;;;;14.23;6.45;;;;;;;;;;5051541;28;20021;-62
2021/10/24 04:09:19;;;;;;;13.65;7.90;;;;;;;;;;5051583;28;20438;-63
2021/10/24 04:11:45;;;;;;;11.45;5.97;;;;;;;;;;5052844;28;20017;-63
2021/10/24 04:14:11;;;;;;;12.13;5.97;;;;;;;;;;5053214;28;20040;-63
2021/10/24 04:16:37;;;;;;;12.32;5.63;;;;;;;;;;5051431;28;20029;-63
2021/10/24 04:19:03;;;;;;;12.88;5.82;;;;;;;;;;5050884;28;20055;-61
2021/10/24 04:21:29;;;;;;;11.23;6.07;;;;;;;;;;5051404;28;20096;-62
2021/10/24 04:23:55;;;;;;;14.00;6.32;;;;;;;;;;5053337;28;20029;-62
2021/10/24 04:26:21;;;;;;;13.88;6.65;;;;;;;;;;5051788;28;20029;-63
2021/10/24 04:28:47;;;;;;;11.82;5.65;;;;;;;;;;5051064;28;20032;-62
2021/10/24 04:31:13;;;;;;;13.35;5.90;;;;;;;;;;5051171;28;20374;-62
2021/10/24 04:33:39;;;;;;;15.32;5.93;;;;;;;;;;5050711;28;20075;-62
2021/10/24 04:36:05;;;;;;;13.88;6.20;;;;;;;;;;5050722;28;20032;-62
2021/10/24 04:38:32;;;;;;;12.88;5.95;;;;;;;;;;5052941;28;20051;-63
2021/10/24 04:40:58;;;;;;;14.93;5.53;;;;;;;;;;5050925;28;20484;-63
2021/10/24 04:43:24;;;;;;;19.55;5.85;;;;;;;;;;5050610;28;20028;-63
2021/10/24 04:45:50;;;;;;;13.70;5.50;;;;;;;;;;5050784;28;20028;-63
2021/10/24 04:48:16;;;;;;;12.00;5.75;;;;;;;;;;5050263;28;20501;-63
2021/10/24 04:50:42;;;;;;;12.27;6.18;;;;;;;;;;5053830;28;20059;-63
2021/10/24 04:53:08;;;;;;;12.32;6.30;;;;;;;;;;5050983;28;20025;-63
2021/10/24 04:55:35;;;;;;;13.75;6.32;;;;;;;;;;5050716;28;20024;-63
2021/10/24 04:58:02;;;;;;;12.63;6.40;;;;;;;;;;5050536;28;20025;-63
2021/10/24 05:00:28;;;;;;;19.98;7.57;;;;;;;;;;5049689;28;20079;-63
2021/10/24 05:02:54;;;;;;;16.58;7.78;;;;;;;;;;5052778;28;20043;-63
2021/10/24 05:05:20;;;;;;;17.40;7.47;;;;;;;;;;5051661;28;20033;-63
2021/10/24 05:07:46;;;;;;;17.67;7.35;;;;;;;;;;5050434;28;20510;-62
2021/10/24 05:10:12;;;;;;;16.50;7.30;;;;;;;;;;5050183;28;20032;-63
2021/10/24 05:12:38;;;;;;;14.05;6.22;;;;;;;;;;5049975;28;20025;-63
2021/10/24 05:15:04;;;;;;;15.40;7.35;;;;;;;;;;5051478;28;20030;-63
2021/10/24 05:17:31;;;;;;;14.93;6.75;;;;;;;;;;5052832;28;20029;-63
2021/10/24 05:19:57;;;;;;;15.20;6.68;;;;;;;;;;5050150;28;20095;-63
2021/10/24 05:22:23;;;;;;;14.45;7.10;;;;;;;;;;5049231;28;20025;-63
2021/10/24 05:24:49;;;;;;;14.05;7.03;;;;;;;;;;5049981;28;20029;-63
2021/10/24 05:27:15;;;;;;;14.75;7.72;;;;;;;;;;5050274;28;20025;-62
2021/10/24 05:29:41;;;;;;;13.15;6.95;;;;;;;;;;5053321;28;20086;-63
2021/10/24 05:32:07;;;;;;;14.23;7.55;;;;;;;;;;5050765;28;20059;-63
2021/10/24 05:34:33;;;;;;;13.70;7.07;;;;;;;;;;5049545;28;20494;-62
2021/10/24 05:36:59;;;;;;;14.18;6.53;;;;;;;;;;5049660;28;20036;-63
2021/10/24 05:39:25;;;;;;;13.00;6.63;;;;;;;;;;5049764;28;20038;-62
2021/10/24 05:41:51;;;;;;;15.23;6.95;;;;;;;;;;5051967;28;20017;-62
2021/10/24 05:44:19;;;;;;;11.13;6.32;;;;;;;;;;5050082;28;20056;-62
2021/10/24 05:46:46;;;;;;;13.75;6.72;;;;;;;;;;5049751;28;20487;-62
2021/10/24 05:49:12;;;;;;;16.77;7.93;;;;;;;;;;5049668;28;20040;-62
2021/10/24 05:51:39;;;;;;;12.85;6.28;;;;;;;;;;5049533;28;20519;-62
2021/10/24 05:54:05;;;;;;;12.93;5.63;;;;;;;;;;5050524;28;20499;-62
2021/10/24 05:56:31;;;;;;;13.20;5.97;;;;;;;;;;5051994;28;20352;-63
2021/10/24 05:58:57;;;;;;;12.25;6.03;;;;;;;;;;5048737;28;20432;-63
2021/10/24 06:01:23;;;;;;;12.82;6.43;;;;;;;;;;5049195;28;20025;-63
2021/10/24 06:03:49;;;;;;;14.32;6.55;;;;;;;;;;5049062;28;20029;-63
2021/10/24 06:06:15;;;;;;;12.02;6.07;;;;;;;;;;5049491;28;20534;-62
2021/10/24 06:08:42;;;;;;;9.60;5.28;;;;;;;;;;5052781;28;20029;-63
2021/10/24 06:11:34;;;;;;;13.35;5.53;;;;;;;;;;5050182;28;20410;-63
2021/10/24 06:13:55;;;;;;;11.27;5.47;;;;;;;;;;5048212;28;20560;-62
2021/10/24 06:16:21;;;;;;;11.80;5.85;;;;;;;;;;5049082;28;20017;-62
2021/10/24 06:18:47;;;;;;;10.30;5.47;;;;;;;;;;5049050;28;20040;-62
2021/10/24 06:21:13;;;;;;;11.60;5.40;;;;;;;;;;5048902;28;20028;-63
2021/10/24 06:23:39;;;;;;;11.20;5.80;;;;;;;;;;5051793;28;20029;-63
2021/10/24 06:26:05;;;;;;;13.75;6.43;;;;;;;;;;5048948;28;20029;-62
2021/10/24 06:28:33;;;;;;;13.43;7.00;;;;;;;;;;5048750;28;20441;-63
2021/10/24 06:30:59;;;;;;;14.90;7.28;;;;;;;;;;5048924;28;20135;-63
2021/10/24 06:33:25;;;;;;;15.00;7.30;;;;;;;;;;5048275;28;20056;-63
2021/10/24 06:35:51;;;;;;;13.95;7.80;;;;;;;;;;5050822;28;20025;-63
2021/10/24 06:38:18;;;;;;;15.60;8.52;;;;;;;;;;5049944;28;20033;-63
2021/10/24 06:40:44;;;;;;;14.07;8.38;;;;;;;;;;5048613;28;20025;-63
2021/10/24 06:43:10;;;;;;;12.95;7.63;;;;;;;;;;5048479;28;20032;-63
2021/10/24 06:45:36;;;;;;;16.58;7.13;;;;;;;;;;5048669;28;20129;-63
2021/10/24 06:48:04;;;;;;;12.75;6.78;;;;;;;;;;5049906;28;20029;-63
2021/10/24 06:50:30;;;;;;;13.27;7.75;;;;;;;;;;5050791;28;20053;-63
2021/10/24 06:52:56;;;;;;;13.57;7.55;;;;;;;;;;5048475;28;20025;-63
2021/10/24 06:55:22;;;;;;;13.85;7.65;;;;;;;;;;5048428;28;20024;-63
2021/10/24 06:57:52;;;;;;;12.63;7.00;;;;;;;;;;5047838;28;20500;-62
2021/10/24 07:00:19;;;;;;;12.32;7.22;;;;;;;;;;5048018;28;20131;-63
2021/10/24 07:02:45;;;;;;;13.30;7.55;;;;;;;;;;5051599;28;20079;-63
2021/10/24 07:05:11;;;;;;;13.15;6.75;;;;;;;;;;5048848;28;20021;-62
2021/10/24 07:07:37;;;;;;;13.48;7.72;;;;;;;;;;5047993;28;20033;-63
2021/10/24 07:10:04;;;;;;;14.05;7.40;;;;;;;;;;5047744;28;20121;-63
2021/10/24 07:12:31;;;;;;;14.13;8.82;;;;;;;;;;5047756;28;20591;-62
2021/10/24 07:14:56;;;;;;;14.82;7.97;;;;;;;;;;5050729;28;20060;-62
2021/10/24 07:17:22;;;;;;;17.67;9.60;;;;;;;;;;5048240;28;20057;-62
2021/10/24 07:19:48;;;;;;;9.20;5.93;;;;;;;;;;5047995;28;20091;-63
2021/10/24 07:22:15;;;;;;;12.57;5.70;;;;;;;;;;5047827;28;20357;-63
2021/10/24 07:24:41;;;;;;;8.50;5.18;;;;;;;;;;5048204;28;20116;-63
2021/10/24 07:27:07;;;;;;;7.80;4.72;;;;;;;;;;5047409;28;20029;-63
2021/10/24 07:29:33;;;;;;;8.45;5.55;;;;;;;;;;5050828;28;20032;-63
2021/10/24 07:31:59;;;;;;;7.82;4.70;;;;;;;;;;5047757;28;20074;-63
2021/10/24 07:34:25;;;;;;;8.90;4.53;;;;;;;;;;5048031;28;20036;-64
2021/10/24 07:36:51;;;;;;;6.13;4.07;;;;;;;;;;5048972;28;20499;-62
2021/10/24 07:39:17;;;;;;;10.57;4.03;;;;;;;;;;5051173;28;20059;-62
2021/10/24 07:41:44;;;;;;;7.70;4.70;;;;;;;;;;5055391;28;20021;-62
2021/10/24 07:44:12;;;;;;;7.72;4.78;;;;;;;;;;5052345;28;20043;-62
2021/10/24 07:46:38;;;;;;;7.70;4.77;;;;;;;;;;5051783;28;20148;-62
2021/10/24 07:49:04;;;;;;;7.10;4.78;;;;;;;;;;5051612;28;20040;-62
2021/10/24 07:51:30;;;;;;;7.30;4.63;;;;;;;;;;5051940;28;20030;-62
2021/10/24 07:53:56;;;;;;;9.25;4.32;;;;;;;;;;5054185;28;20096;-62
2021/10/24 07:56:23;;;;;;;7.47;4.10;;;;;;;;;;5052948;28;20025;-62
2021/10/24 07:58:49;;;;;;;5.85;3.90;;;;;;;;;;5051294;28;20041;-62
2021/10/24 08:01:16;;;;;;;6.95;4.15;;;;;;;;;;5050552;28;20017;-62
2021/10/24 08:03:43;;;;;;;7.43;3.80;;;;;;;;;;5051074;28;20047;-62
2021/10/24 08:06:09;;;;;;;5.75;3.83;;;;;;;;;;5053092;28;20017;-62
2021/10/24 08:08:36;;;;;;;6.10;3.63;;;;;;;;;;5054995;28;20534;-62
2021/10/24 08:11:02;;;;;;;6.78;4.43;;;;;;;;;;5051190;28;20028;-62
2021/10/24 08:13:28;;;;;;;6.47;4.30;;;;;;;;;;5051216;28;20033;-62
2021/10/24 08:15:54;;;;;;;7.40;4.13;;;;;;;;;;5050973;28;20033;-62
2021/10/24 08:18:20;;;;;;;6.65;4.18;;;;;;;;;;5051215;28;20428;-62
2021/10/24 08:20:47;;;;;;;8.60;4.38;;;;;;;;;;5054296;28;20035;-62
2021/10/24 08:23:14;;;;;;;6.47;3.95;;;;;;;;;;5051963;28;20055;-61
2021/10/24 08:25:40;;;;;;;6.70;4.03;;;;;;;;;;5050100;28;20400;-61
2021/10/24 08:28:06;;;;;;;7.55;4.05;;;;;;;;;;5051085;28;20112;-63
2021/10/24 08:30:32;;;;;;;6.45;3.85;;;;;;;;;;5051098;28;20205;-61
2021/10/24 08:32:58;;;;;;;7.15;3.70;;;;;;;;;;5052695;28;20053;-62
2021/10/24 08:35:25;;;;;;;8.05;4.43;;;;;;;;;;5051433;28;20078;-62
2021/10/24 08:37:52;;;;;;;7.25;3.92;;;;;;;;;;5048835;28;20071;-63
2021/10/24 08:40:18;;;;;;;7.30;4.03;;;;;;;;;;5049488;28;20374;-63
2021/10/24 08:42:46;;;;;;;8.40;4.00;;;;;;;;;;5049726;28;20032;-63
2021/10/24 08:45:12;;;;;;;6.35;3.55;;;;;;;;;;5034150;28;20039;-62
2021/10/24 08:47:39;;;;;;;7.25;4.10;;;;;;;;;;5052680;28;20075;-63
2021/10/24 08:50:05;;;;;;;8.18;3.17;;;;;;;;;;5049562;28;20089;-63
2021/10/24 08:52:33;;;;;;;7.30;3.35;;;;;;;;;;5048504;28;20378;-63
2021/10/24 08:54:59;;;;;;;8.07;3.60;;;;;;;;;;5049076;28;20109;-63
2021/10/24 08:57:26;;;;;;;8.40;4.03;;;;;;;;;;5049334;28;20108;-63
2021/10/24 08:59:53;;;;;;;8.25;3.80;;;;;;;;;;5051712;28;20551;-63
2021/10/24 09:02:19;;;;;;;8.23;3.72;;;;;;;;;;5050229;28;20324;-63
2021/10/24 09:04:50;;;;;;;6.15;3.35;;;;;;;;;;5049253;28;20024;-63
2021/10/24 09:07:16;;;;;;;6.43;3.47;;;;;;;;;;5048613;28;20021;-63
2021/10/24 09:09:42;;;;;;;6.07;3.47;;;;;;;;;;5049281;28;20052;-63
2021/10/24 09:12:13;;;;;;;6.50;3.50;;;;;;;;;;5049782;28;20432;-63
2021/10/24 09:14:48;;;;;;;7.05;3.30;;;;;;;;;;5052942;28;20032;-68
2021/10/24 09:17:18;;;;;;;6.13;3.47;;;;;;;;;;5049895;28;20100;-68
2021/10/24 09:19:46;;;;;;;6.88;3.10;;;;;;;;;;5048478;28;20067;-68
2021/10/24 09:22:13;;;;;;;7.10;3.20;;;;;;;;;;5048898;28;20059;-68
2021/10/24 09:24:39;;;;;;;6.47;3.63;;;;;;;;;;5050404;28;20025;-68
2021/10/24 09:27:14;;;;;;;6.43;3.63;;;;;;;;;;5050349;28;20561;-68
2021/10/24 09:29:47;;;;;;;6.07;3.10;;;;;;;;;;5048195;28;20025;-69
2021/10/24 09:32:13;;;;;;;6.90;3.57;;;;;;;;;;5008571;28;1166322;-68
2021/10/24 09:34:39;;;;;;;5.85;3.13;;;;;;;;;;5050110;28;20178;-68
2021/10/24 09:37:05;;;;;;;7.20;3.50;;;;;;;;;;5049430;28;20060;-68
2021/10/24 09:39:34;;;;;;;7.60;2.90;;;;;;;;;;5049422;28;20045;-68
2021/10/24 09:42:10;;;;;;;6.55;3.17;;;;;;;;;;5051810;28;20381;-68
2021/10/24 09:44:36;;;;;;;7.10;3.30;;;;;;;;;;5052740;28;20108;-69
2021/10/24 09:47:02;;;;;;;7.03;3.40;;;;;;;;;;5049263;28;20048;-68
2021/10/24 09:49:28;;;;;;;6.38;3.30;;;;;;;;;;5049578;28;20021;-68
2021/10/24 09:51:54;;;;;;;5.57;3.53;;;;;;;;;;5049323;28;20028;-68
2021/10/24 09:54:24;;;;;;;6.10;3.50;;;;;;;;;;5048551;28;20025;-68
2021/10/24 09:56:50;;;;;;;6.43;3.60;;;;;;;;;;5052156;28;20050;-68
2021/10/24 09:59:17;;;;;;;9.40;3.90;;;;;;;;;;5051024;28;20045;-68
2021/10/24 10:01:47;;;;;;;7.30;3.40;;;;;;;;;;5049418;28;20028;-68
2021/10/24 10:04:13;;;;;;;5.60;3.20;;;;;;;;;;5049134;28;20025;-68
2021/10/24 10:06:39;;;;;;;9.32;3.88;;;;;;;;;;5048929;28;20469;-68
2021/10/24 10:09:05;;;;;;;7.75;3.78;;;;;;;;;;5050168;28;20033;-68
2021/10/24 10:11:39;;;;;;;7.22;3.97;;;;;;;;;;5051847;28;20449;-68
2021/10/24 10:14:08;;;;;;;6.03;3.00;;;;;;;;;;5048795;28;20029;-68
2021/10/24 10:16:39;;;;;;;8.27;3.95;;;;;;;;;;5048935;28;20049;-68
2021/10/24 10:19:06;;;;;;;6.10;3.40;;;;;;;;;;5048903;28;20060;-68
2021/10/24 10:21:34;;;;;;;8.40;4.20;;;;;;;;;;5048137;28;20028;-68
2021/10/24 10:24:01;;;;;;;6.38;3.47;;;;;;;;;;5051107;28;20033;-68
2021/10/24 10:26:31;;;;;;;6.50;3.53;;;;;;;;;;5050746;28;20048;-67
2021/10/24 10:28:57;;;;;;;9.27;3.70;;;;;;;;;;5048749;28;20385;-68
2021/10/24 10:31:23;;;;;;;7.75;3.50;;;;;;;;;;5048729;28;20025;-68
2021/10/24 10:33:59;;;;;;;6.53;3.50;;;;;;;;;;5048023;28;20051;-68
2021/10/24 10:36:46;;;;;;;7.28;4.25;;;;;;;;;;5048405;28;20064;-68
2021/10/24 10:39:34;;;;;;;7.57;3.70;;;;;;;;;;5033059;28;20033;-67
2021/10/24 10:42:07;;;;;;;9.45;5.15;;;;;;;;;;5049035;28;20025;-68
2021/10/24 10:44:34;;;;;;;9.50;5.10;;;;;;;;;;5050800;28;20033;-68
2021/10/24 10:47:01;;;;;;;9.63;5.00;;;;;;;;;;5048659;28;20025;-68
2021/10/24 10:49:27;;;;;;;10.00;5.03;;;;;;;;;;5048190;28;20025;-68
2021/10/24 10:51:54;;;;;;;11.25;5.47;;;;;;;;;;5048235;28;20048;-68
2021/10/24 10:54:20;;;;;;;13.55;6.18;;;;;;;;;;5048437;28;20469;-68
2021/10/24 10:56:48;;;;;;;13.95;6.35;;;;;;;;;;5051116;28;20530;-68
2021/10/24 10:59:15;;;;;;;11.68;6.55;;;;;;;;;;5049186;28;20040;-68
2021/10/24 11:01:41;;;;;;;11.45;5.97;;;;;;;;;;5048111;28;20461;-68
2021/10/24 11:04:13;;;;;;;13.98;6.45;;;;;;;;;;5048148;28;20056;-68
2021/10/24 11:06:39;;;;;;;16.73;7.45;;;;;;;;;;5047943;28;20031;-68
2021/10/24 11:09:08;;;;;;;12.80;6.63;;;;;;;;;;5049663;28;20037;-68
2021/10/24 11:11:40;;;;;;;12.95;6.47;;;;;;;;;;5050948;28;20025;-68
2021/10/24 11:14:12;;;;;;;11.27;6.07;;;;;;;;;;5047260;28;20025;-68
2021/10/24 11:16:52;;;;;;;12.32;6.13;;;;;;;;;;5048192;28;20103;-68
2021/10/24 11:19:28;;;;;;;15.38;6.82;;;;;;;;;;5047841;28;20041;-68
2021/10/24 11:22:01;;;;;;;15.70;6.85;;;;;;;;;;5048085;28;20380;-68
2021/10/24 11:24:28;;;;;;;11.50;6.45;;;;;;;;;;5048135;28;20023;-68
2021/10/24 11:26:54;;;;;;;13.40;6.60;;;;;;;;;;5050186;28;20029;-68
2021/10/24 11:29:20;;;;;;;14.68;6.78;;;;;;;;;;5048900;28;20491;-67
2021/10/24 11:31:46;;;;;;;17.75;6.53;;;;;;;;;;5048144;28;20028;-68
2021/10/24 11:34:29;;;;;;;15.75;6.32;;;;;;;;;;5047501;28;20115;-68
2021/10/24 11:36:56;;;;;;;15.55;6.63;;;;;;;;;;5047759;28;20029;-69
2021/10/24 11:39:24;;;;;;;14.65;6.95;;;;;;;;;;5046099;28;20370;-67
2021/10/24 11:41:50;;;;;;;14.90;7.53;;;;;;;;;;5050689;28;20051;-67
2021/10/24 11:44:18;;;;;;;14.57;6.88;;;;;;;;;;5050234;28;20112;-67
2021/10/24 11:46:44;;;;;;;18.52;7.65;;;;;;;;;;5047556;28;20045;-67
2021/10/24 11:49:10;;;;;;;13.35;7.38;;;;;;;;;;5047408;28;20076;-67
2021/10/24 11:51:37;;;;;;;13.45;6.28;;;;;;;;;;5047631;28;20048;-68
2021/10/24 11:54:07;;;;;;;14.75;7.05;;;;;;;;;;5049106;28;20025;-67
2021/10/24 11:56:52;;;;;;;13.45;7.07;;;;;;;;;;5050459;28;20017;-68
2021/10/24 12:01:44;;;;;;;11.52;6.63;;;;;;;;;;5047298;28;20021;-67
2021/10/24 12:04:11;;;;;;;11.82;6.25;;;;;;;;;;5047604;28;20021;-67
2021/10/24 12:06:57;;;;;;;13.70;6.40;;;;;;;;;;5047601;28;20021;-67
2021/10/24 12:09:39;;;;;;;13.45;6.60;;;;;;;;;;5033168;28;20021;-68
2021/10/24 12:12:22;;;;;;;14.57;6.90;;;;;;;;;;5048821;28;20067;-69
2021/10/24 12:14:51;;;;;;;16.90;8.00;;;;;;;;;;5046517;28;20032;-68
2021/10/24 12:17:25;;;;;;;16.92;7.53;;;;;;;;;;5049879;28;20507;-67
2021/10/24 12:20:08;;;;;;;14.00;6.43;;;;;;;;;;5047370;28;20128;-68
2021/10/24 12:22:38;;;;;;;11.60;6.18;;;;;;;;;;5048975;28;20032;-69
2021/10/24 12:25:04;;;;;;;14.38;6.53;;;;;;;;;;5049710;28;20036;-68
2021/10/24 12:27:36;;;;;;;12.82;6.82;;;;;;;;;;5051269;28;20512;-67
2021/10/24 12:30:04;;;;;;;21.58;7.25;;;;;;;;;;5052301;28;20033;-69
2021/10/24 12:32:31;;;;;;;13.88;7.38;;;;;;;;;;5052812;28;20572;-69
2021/10/24 12:34:58;;;;;;;15.85;7.20;;;;;;;;;;5050578;28;20025;-67
2021/10/24 12:37:24;;;;;;;19.70;8.10;;;;;;;;;;5049800;28;20021;-67
2021/10/24 12:40:10;;;;;;;16.92;6.82;;;;;;;;;;5052066;28;20033;-67
2021/10/24 12:42:36;;;;;;;15.30;7.32;;;;;;;;;;5050551;28;20029;-68
2021/10/24 12:45:11;;;;;;;14.00;7.03;;;;;;;;;;5052482;28;20400;-69
2021/10/24 12:47:37;;;;;;;15.40;7.32;;;;;;;;;;5053955;28;20036;-68
2021/10/24 12:50:04;;;;;;;15.30;7.13;;;;;;;;;;5050886;28;20037;-69
2021/10/24 12:52:31;;;;;;;15.02;7.35;;;;;;;;;;5050118;28;20040;-68
2021/10/24 12:54:59;;;;;;;15.50;7.73;;;;;;;;;;5050037;28;20017;-68
2021/10/24 12:57:26;;;;;;;13.98;7.32;;;;;;;;;;5050671;28;20154;-69
2021/10/24 12:59:52;;;;;;;18.65;7.50;;;;;;;;;;5052693;28;20029;-67
2021/10/24 13:02:18;;;;;;;15.77;7.85;;;;;;;;;;5051838;28;20128;-69
2021/10/24 13:04:46;;;;;;;19.85;8.70;;;;;;;;;;5049880;28;20509;-69
2021/10/24 13:07:12;;;;;;;17.15;8.18;;;;;;;;;;5049899;28;20021;-69
2021/10/24 13:09:38;;;;;;;19.05;8.88;;;;;;;;;;5050191;28;20047;-69
2021/10/24 13:12:05;;;;;;;15.10;7.80;;;;;;;;;;5051656;28;20029;-67
2021/10/24 13:14:31;;;;;;;18.98;8.50;;;;;;;;;;5052523;28;20021;-68
2021/10/24 13:16:57;;;;;;;18.25;10.13;;;;;;;;;;5049324;28;20017;-68
2021/10/24 13:19:23;;;;;;;17.10;9.52;;;;;;;;;;5051492;28;20086;-69
2021/10/24 13:24:18;;;;;;;16.70;7.72;;;;;;;;;;5050336;28;20480;-69
2021/10/24 13:26:46;;;;;;;15.93;7.90;;;;;;;;;;5052938;28;20451;-69
2021/10/24 13:29:13;;;;;;;17.77;8.57;;;;;;;;;;5051583;28;20079;-68
2021/10/24 13:31:39;;;;;;;19.75;8.45;;;;;;;;;;5050037;28;20056;-67
2021/10/24 13:34:06;;;;;;;22.63;8.23;;;;;;;;;;5048210;28;20080;-67
2021/10/24 13:36:35;;;;;;;18.30;8.82;;;;;;;;;;5049920;28;20068;-69
2021/10/24 13:39:01;;;;;;;18.77;8.32;;;;;;;;;;5051569;28;20104;-67
2021/10/24 13:41:27;;;;;;;15.93;7.75;;;;;;;;;;5051013;28;20032;-67
2021/10/24 13:43:53;;;;;;;17.85;7.57;;;;;;;;;;5049288;28;20025;-67
2021/10/24 13:46:19;;;;;;;19.05;9.13;;;;;;;;;;5049474;28;20437;-69
2021/10/24 13:48:45;;;;;;;21.30;10.70;;;;;;;;;;5049245;28;20021;-69
2021/10/24 13:51:14;;;;;;;17.48;10.63;;;;;;;;;;5050211;28;20025;-68
2021/10/24 13:53:40;;;;;;;20.55;10.15;;;;;;;;;;5052983;28;20017;-68
2021/10/24 13:56:06;;;;;;;17.15;8.07;;;;;;;;;;5048231;28;20035;-68
2021/10/24 13:58:32;;;;;;;17.23;8.48;;;;;;;;;;5050046;28;20041;-68
2021/10/24 14:00:58;;;;;;;15.20;8.80;;;;;;;;;;5047808;28;20469;-68
2021/10/24 14:03:25;;;;;;;18.10;9.48;;;;;;;;;;5049399;28;20024;-68
2021/10/24 14:05:51;;;;;;;19.55;9.63;;;;;;;;;;5051696;28;20102;-68
2021/10/24 14:08:18;;;;;;;17.42;8.10;;;;;;;;;;5050362;28;20059;-68
2021/10/24 14:10:49;;;;;;;15.82;8.35;;;;;;;;;;5048491;28;20488;-69
2021/10/24 14:13:16;;;;;;;16.13;7.85;;;;;;;;;;5048336;28;20087;-69
2021/10/24 14:15:42;;;;;;;15.88;8.23;;;;;;;;;;5049050;28;20021;-68
2021/10/24 14:18:08;;;;;;;14.23;8.23;;;;;;;;;;5049871;28;20052;-69
2021/10/24 14:20:34;;;;;;;17.95;8.70;;;;;;;;;;5051560;28;20017;-69
2021/10/24 14:22:59;;;;;;;19.73;10.15;;;;;;;;;;5048495;28;20021;-69
2021/10/24 14:25:26;;;;;;;18.77;9.50;;;;;;;;;;5048383;28;20036;-69
2021/10/24 14:27:52;;;;;;;16.17;9.75;;;;;;;;;;5048399;28;20013;-69
2021/10/24 14:30:18;;;;;;;24.13;11.63;;;;;;;;;;5048690;28;20078;-69
2021/10/24 14:32:44;;;;;;;18.67;10.15;;;;;;;;;;5052249;28;20443;-69
2021/10/24 14:35:10;;;;;;;17.27;9.07;;;;;;;;;;5049032;28;20090;-69
2021/10/24 14:37:37;;;;;;;19.48;8.30;;;;;;;;;;5050031;28;20025;-69